createdAt,value
2019-03-23T00:02:27.340Z,30.25
2019-03-23T00:04:57.652Z,31.65
2019-03-23T00:07:28.006Z,32.05
2019-03-23T00:09:58.778Z,31.75
2019-03-23T00:12:29.273Z,33.48
2019-03-23T00:14:59.633Z,33.55
2019-03-23T00:17:29.970Z,30.72
2019-03-23T00:20:00.343Z,30.23
2019-03-23T00:22:30.678Z,31.48
2019-03-23T00:25:01.022Z,31.45
2019-03-23T00:27:31.362Z,29.18
2019-03-23T00:30:01.707Z,31.68
2019-03-23T00:32:32.059Z,31.70
2019-03-23T00:35:02.394Z,28.17
2019-03-23T00:37:33.776Z,32.53
2019-03-23T00:40:09.823Z,29.57
2019-03-23T00:42:40.157Z,33.40
2019-03-23T00:45:11.015Z,31.82
2019-03-23T00:47:53.334Z,30.43
2019-03-23T00:50:23.676Z,30.85
2019-03-23T00:52:54.019Z,30.17
2019-03-23T00:55:24.359Z,30.50
2019-03-23T00:57:54.716Z,31.40
2019-03-23T01:00:25.057Z,31.65
2019-03-23T01:02:55.405Z,29.48
2019-03-23T01:05:25.744Z,28.25
2019-03-23T01:07:56.093Z,29.48
2019-03-23T01:10:26.439Z,33.50
2019-03-23T01:12:56.784Z,30.57
2019-03-23T01:15:27.131Z,31.33
2019-03-23T01:17:58.445Z,30.20
2019-03-23T01:20:28.786Z,29.60
2019-03-23T01:22:59.533Z,28.12
2019-03-23T01:25:29.866Z,30.10
2019-03-23T01:28:00.757Z,32.67
2019-03-23T01:30:31.097Z,31.23
2019-03-23T01:33:01.487Z,31.50
2019-03-23T01:35:31.806Z,30.12
2019-03-23T01:38:02.208Z,30.27
2019-03-23T01:40:32.486Z,31.15
2019-03-23T01:43:02.848Z,31.50
2019-03-23T01:45:33.200Z,30.62
2019-03-23T01:48:03.562Z,30.08
2019-03-23T01:50:33.909Z,29.75
2019-03-23T01:53:04.257Z,30.15
2019-03-23T01:55:34.640Z,30.48
2019-03-23T01:58:04.989Z,30.50
2019-03-23T02:00:35.400Z,31.68
2019-03-23T02:03:06.191Z,31.00
2019-03-23T02:05:36.522Z,32.65
2019-03-23T02:08:06.861Z,33.90
2019-03-23T02:10:37.446Z,28.23
2019-03-23T02:13:07.776Z,31.62
2019-03-23T02:15:38.121Z,31.77
2019-03-23T02:18:08.462Z,31.57
2019-03-23T02:20:38.800Z,30.20
2019-03-23T02:23:09.165Z,31.20
2019-03-23T02:25:39.512Z,32.75
2019-03-23T02:28:09.859Z,31.97
2019-03-23T02:30:40.211Z,30.48
2019-03-23T02:33:10.560Z,29.00
2019-03-23T02:35:40.900Z,29.85
2019-03-23T02:38:11.238Z,29.30
2019-03-23T02:40:41.583Z,31.07
2019-03-23T02:43:11.956Z,29.23
2019-03-23T02:45:42.280Z,30.10
2019-03-23T02:48:12.618Z,30.00
2019-03-23T02:50:42.962Z,31.05
2019-03-23T02:53:13.303Z,32.93
2019-03-23T02:55:43.645Z,31.17
2019-03-23T02:58:14.047Z,29.42
2019-03-23T03:00:44.401Z,30.80
2019-03-23T03:03:14.742Z,30.90
2019-03-23T03:05:45.095Z,32.25
2019-03-23T03:08:15.434Z,28.60
2019-03-23T03:10:45.794Z,29.18
2019-03-23T03:13:16.151Z,32.10
2019-03-23T03:15:46.487Z,29.02
2019-03-23T03:18:17.005Z,32.20
2019-03-23T03:20:47.415Z,31.35
2019-03-23T03:23:17.744Z,30.35
2019-03-23T03:25:48.081Z,31.37
2019-03-23T03:28:19.393Z,33.25
2019-03-23T03:30:49.818Z,30.85
2019-03-23T03:33:20.184Z,32.38
2019-03-23T03:35:50.521Z,31.68
2019-03-23T03:38:20.855Z,30.90
2019-03-23T03:40:51.226Z,31.87
2019-03-23T03:43:21.563Z,30.27
2019-03-23T03:45:51.929Z,30.57
2019-03-23T03:48:22.284Z,28.98
2019-03-23T03:50:52.613Z,30.92
2019-03-23T03:53:23.199Z,29.85
2019-03-23T03:55:53.546Z,27.30
2019-03-23T03:58:23.886Z,30.43
2019-03-23T04:00:54.226Z,31.60
2019-03-23T04:03:24.765Z,31.77
2019-03-23T04:05:55.349Z,32.42
2019-03-23T04:08:26.670Z,33.10
2019-03-23T04:10:57.019Z,31.90
2019-03-23T04:13:27.356Z,32.83
2019-03-23T04:15:57.709Z,32.67
2019-03-23T04:18:28.045Z,33.92
2019-03-23T04:20:58.383Z,33.45
2019-03-23T04:23:28.724Z,34.73
2019-03-23T04:25:59.078Z,35.25
2019-03-23T04:28:29.493Z,33.67
2019-03-23T04:30:59.835Z,36.20
2019-03-23T04:33:30.173Z,33.73
2019-03-23T04:36:00.554Z,37.42
2019-03-23T04:38:30.888Z,38.67
2019-03-23T04:41:02.211Z,39.30
2019-03-23T04:43:32.553Z,38.98
2019-03-23T04:46:02.909Z,41.88
2019-03-23T04:48:34.321Z,39.67
2019-03-23T04:51:04.661Z,39.38
2019-03-23T04:53:35.046Z,39.78
2019-03-23T04:56:05.383Z,37.25
2019-03-23T04:58:35.721Z,37.98
2019-03-23T05:01:06.065Z,36.58
2019-03-23T05:03:36.400Z,37.42
2019-03-23T05:06:06.853Z,36.38
2019-03-23T05:08:37.207Z,39.58
2019-03-23T05:11:07.789Z,37.15
2019-03-23T05:13:38.136Z,36.13
2019-03-23T05:16:08.482Z,37.38
2019-03-23T05:18:38.821Z,34.80
2019-03-23T05:21:09.165Z,35.03
2019-03-23T05:23:41.083Z,34.98
2019-03-23T05:26:11.423Z,36.77
2019-03-23T05:28:41.766Z,37.33
2019-03-23T05:31:12.110Z,35.50
2019-03-23T05:33:42.464Z,35.80
2019-03-23T05:36:15.286Z,37.73
2019-03-23T05:38:45.010Z,36.15
2019-03-23T05:41:15.369Z,34.90
2019-03-23T05:43:45.719Z,34.03
2019-03-23T05:46:16.071Z,34.98
2019-03-23T05:48:46.426Z,34.88
2019-03-23T05:51:16.801Z,33.85
2019-03-23T05:53:47.137Z,34.53
2019-03-23T05:56:17.850Z,34.00
2019-03-23T05:58:48.205Z,35.73
2019-03-23T06:01:18.541Z,34.55
2019-03-23T06:03:48.883Z,31.52
2019-03-23T06:06:19.248Z,31.73
2019-03-23T06:08:54.991Z,36.00
2019-03-23T06:11:21.626Z,35.03
2019-03-23T06:13:51.961Z,32.67
2019-03-23T06:16:22.303Z,33.48
2019-03-23T06:18:52.646Z,32.88
2019-03-23T06:21:22.999Z,32.58
2019-03-23T06:23:53.341Z,31.52
2019-03-23T06:26:23.698Z,31.15
2019-03-23T06:28:54.032Z,31.65
2019-03-23T06:31:24.424Z,30.82
2019-03-23T06:33:54.739Z,30.52
2019-03-23T06:36:25.077Z,29.65
2019-03-23T06:39:05.077Z,31.27
2019-03-23T06:41:27.477Z,31.95
2019-03-23T06:43:57.804Z,30.43
2019-03-23T06:46:28.149Z,30.05
2019-03-23T06:48:58.490Z,29.02
2019-03-23T06:51:28.851Z,31.73
2019-03-23T06:53:59.216Z,32.00
2019-03-23T06:56:30.379Z,30.75
2019-03-23T06:59:00.728Z,32.73
2019-03-23T07:01:31.072Z,31.02
2019-03-23T07:04:01.418Z,31.17
2019-03-23T07:06:31.788Z,31.05
2019-03-23T07:09:02.140Z,33.05
2019-03-23T07:11:32.487Z,33.35
2019-03-23T07:14:02.845Z,28.30
2019-03-23T07:16:33.191Z,32.03
2019-03-23T07:19:03.551Z,33.02
2019-03-23T07:21:33.904Z,31.10
2019-03-23T07:24:04.252Z,27.67
2019-03-23T07:26:34.628Z,28.77
2019-03-23T07:29:04.979Z,31.20
2019-03-23T07:31:35.326Z,29.82
2019-03-23T07:34:06.227Z,27.77
2019-03-23T07:36:36.603Z,28.67
2019-03-23T07:39:07.784Z,29.30
2019-03-23T07:41:38.126Z,27.45
2019-03-23T07:44:08.470Z,26.02
2019-03-23T07:46:38.821Z,27.77
2019-03-23T07:49:10.104Z,28.83
2019-03-23T07:51:40.526Z,25.45
2019-03-23T08:05:49.086Z,25.48
2019-03-23T08:08:19.436Z,24.35
2019-03-23T08:10:49.789Z,25.05
2019-03-23T08:13:20.254Z,24.90
2019-03-23T08:15:50.555Z,25.90
2019-03-23T08:18:20.908Z,24.05
2019-03-23T08:20:51.255Z,24.18
2019-03-23T08:23:21.608Z,24.80
2019-03-23T08:25:51.953Z,22.75
2019-03-23T08:28:22.300Z,24.02
2019-03-23T08:30:53.204Z,24.43
2019-03-23T08:33:23.548Z,24.23
2019-03-23T08:35:53.900Z,23.65
2019-03-23T08:38:24.266Z,22.00
2019-03-23T08:40:54.611Z,22.95
2019-03-23T08:43:24.950Z,23.75
2019-03-23T08:45:55.298Z,22.48
2019-03-23T08:48:25.785Z,22.48
2019-03-23T08:50:56.126Z,22.02
2019-03-23T08:53:26.491Z,22.27
2019-03-23T08:55:56.833Z,25.25
2019-03-23T08:58:28.454Z,24.27
2019-03-23T09:01:00.256Z,22.32
2019-03-23T09:03:30.603Z,23.05
2019-03-23T09:06:00.951Z,22.93
2019-03-23T09:08:31.299Z,21.05
2019-03-23T09:11:01.642Z,21.40
2019-03-23T09:13:40.558Z,21.00
2019-03-23T09:16:04.974Z,22.20
2019-03-23T09:18:35.320Z,21.97
2019-03-23T09:21:05.675Z,22.22
2019-03-23T09:23:36.083Z,21.95
2019-03-23T09:26:06.370Z,21.62
2019-03-23T09:28:36.702Z,20.37
2019-03-23T09:31:07.057Z,19.95
2019-03-23T09:33:37.427Z,20.15
2019-03-23T09:36:07.833Z,21.05
2019-03-23T09:38:38.188Z,21.00
2019-03-23T09:41:08.527Z,21.80
2019-03-23T09:43:38.880Z,20.45
2019-03-23T09:46:09.269Z,21.65
2019-03-23T09:48:39.601Z,20.82
2019-03-23T09:51:09.949Z,20.23
2019-03-23T09:53:40.304Z,19.80
2019-03-23T09:56:10.648Z,19.73
2019-03-23T09:58:40.993Z,20.95
2019-03-23T10:01:11.596Z,19.95
2019-03-23T10:03:42.948Z,20.48
2019-03-23T10:06:13.444Z,20.05
2019-03-23T10:08:43.798Z,20.95
2019-03-23T10:11:14.144Z,21.12
2019-03-23T10:13:44.537Z,20.02
2019-03-23T10:16:14.845Z,20.43
2019-03-23T10:18:45.204Z,20.00
2019-03-23T10:21:15.550Z,19.25
2019-03-23T10:23:45.908Z,19.17
2019-03-23T10:26:16.279Z,18.80
2019-03-23T10:28:46.619Z,19.80
2019-03-23T10:31:16.977Z,20.05
2019-03-23T10:33:47.346Z,21.33
2019-03-23T10:36:17.671Z,20.15
2019-03-23T10:38:48.017Z,18.57
2019-03-23T10:41:18.359Z,21.90
2019-03-23T10:43:49.695Z,22.60
2019-03-23T10:46:20.040Z,23.80
2019-03-23T10:48:50.386Z,21.30
2019-03-23T10:51:20.742Z,22.37
2019-03-23T10:53:51.083Z,19.77
2019-03-23T10:56:21.434Z,22.10
2019-03-23T10:58:51.792Z,23.27
2019-03-23T11:01:22.135Z,25.05
2019-03-23T11:03:52.498Z,25.20
2019-03-23T11:06:22.843Z,25.85
2019-03-23T11:08:53.198Z,25.30
2019-03-23T11:11:23.553Z,27.35
2019-03-23T11:13:53.919Z,24.12
2019-03-23T11:16:24.270Z,23.65
2019-03-23T11:18:54.638Z,23.25
2019-03-23T11:21:24.982Z,20.75
2019-03-23T11:23:55.344Z,22.27
2019-03-23T11:26:25.691Z,23.02
2019-03-23T11:28:56.037Z,19.75
2019-03-23T11:31:26.400Z,21.75
2019-03-23T11:33:56.738Z,19.45
2019-03-23T11:36:27.101Z,19.73
2019-03-23T11:38:57.439Z,18.25
2019-03-23T11:41:27.791Z,18.82
2019-03-23T11:43:58.137Z,19.62
2019-03-23T11:46:28.484Z,17.73
2019-03-23T11:48:58.834Z,16.75
2019-03-23T11:51:29.169Z,14.75
2019-03-23T11:53:59.521Z,14.00
2019-03-23T11:56:30.402Z,13.93
2019-03-23T11:59:01.107Z,15.00
2019-03-23T12:01:31.443Z,14.80
2019-03-23T12:04:01.793Z,14.00
2019-03-23T12:06:33.213Z,12.07
2019-03-23T12:09:05.101Z,12.18
2019-03-23T12:11:35.449Z,11.45
2019-03-23T12:14:05.992Z,11.40
2019-03-23T12:16:36.344Z,10.03
2019-03-23T12:19:06.701Z,8.75
2019-03-23T12:21:37.048Z,6.92
2019-03-23T12:24:07.461Z,6.22
2019-03-23T12:26:37.803Z,6.45
2019-03-23T12:29:08.153Z,6.55
2019-03-23T12:31:38.493Z,6.50
2019-03-23T12:34:08.829Z,6.58
2019-03-23T12:36:39.174Z,6.28
2019-03-23T12:39:09.533Z,6.25
2019-03-23T12:41:39.895Z,5.22
2019-03-23T12:44:10.236Z,5.70
2019-03-23T12:46:48.174Z,5.30
2019-03-23T12:49:12.627Z,5.55
2019-03-23T12:51:42.970Z,5.25
2019-03-23T12:54:13.326Z,6.58
2019-03-23T12:56:43.682Z,5.65
2019-03-23T12:59:14.031Z,6.53
2019-03-23T13:01:44.369Z,5.85
2019-03-23T13:04:14.709Z,4.92
2019-03-23T13:06:45.128Z,4.33
2019-03-23T13:09:15.491Z,4.10
2019-03-23T13:11:45.845Z,3.33
2019-03-23T13:14:16.187Z,3.75
2019-03-23T13:16:46.552Z,3.95
2019-03-23T13:19:16.901Z,3.37
2019-03-23T13:21:47.242Z,2.22
2019-03-23T13:24:17.603Z,1.70
2019-03-23T13:26:47.930Z,1.80
2019-03-23T13:29:18.271Z,1.30
2019-03-23T13:31:49.582Z,1.60
2019-03-23T13:34:19.929Z,1.55
2019-03-23T13:36:51.355Z,1.77
2019-03-23T13:39:21.692Z,1.47
2019-03-23T13:41:52.094Z,1.50
2019-03-23T13:44:22.439Z,2.02
2019-03-23T13:46:52.785Z,1.52
2019-03-23T13:49:23.139Z,1.55
2019-03-23T13:51:53.499Z,1.67
2019-03-23T13:54:23.877Z,1.17
2019-03-23T13:56:54.210Z,1.30
2019-03-23T13:59:24.567Z,1.87
2019-03-23T14:01:54.937Z,1.75
2019-03-23T14:04:25.235Z,1.60
2019-03-23T14:06:55.594Z,1.75
2019-03-23T14:09:26.515Z,1.80
2019-03-23T14:11:56.868Z,2.05
2019-03-23T14:14:27.224Z,1.42
2019-03-23T14:16:57.550Z,1.27
2019-03-23T14:19:27.880Z,1.45
2019-03-23T14:21:58.231Z,2.72
2019-03-23T14:24:28.578Z,1.37
2019-03-23T14:26:58.924Z,1.30
2019-03-23T14:29:29.273Z,1.22
2019-03-23T14:31:59.618Z,1.50
2019-03-23T14:34:30.003Z,1.17
2019-03-23T14:37:00.344Z,1.57
2019-03-23T14:39:31.248Z,1.98
2019-03-23T14:42:04.971Z,1.62
2019-03-23T14:44:33.745Z,1.62
2019-03-23T14:47:04.089Z,1.57
2019-03-23T14:49:35.413Z,1.20
2019-03-23T14:52:05.772Z,1.50
2019-03-23T14:54:36.116Z,1.92
2019-03-23T14:57:06.453Z,1.20
2019-03-23T14:59:36.795Z,1.30
2019-03-23T15:02:07.137Z,1.52
2019-03-23T15:04:37.473Z,1.27
2019-03-23T15:07:07.808Z,1.17
2019-03-23T15:09:38.171Z,1.62
2019-03-23T15:12:14.867Z,1.40
2019-03-23T15:14:40.585Z,1.52
2019-03-23T15:17:10.925Z,1.57
2019-03-23T15:19:41.268Z,1.85
2019-03-23T15:22:11.604Z,1.90
2019-03-23T15:24:41.940Z,1.67
2019-03-23T15:27:12.306Z,1.57
2019-03-23T15:29:42.643Z,1.40
2019-03-23T15:32:12.989Z,1.75
2019-03-23T15:34:43.320Z,1.40
2019-03-23T15:37:13.665Z,1.30
2019-03-23T15:39:56.134Z,1.60
2019-03-23T15:42:26.490Z,1.65
2019-03-23T15:44:56.839Z,1.35
2019-03-23T15:47:27.195Z,1.27
2019-03-23T15:49:57.535Z,1.50
2019-03-23T15:52:27.925Z,1.67
2019-03-23T15:54:58.241Z,1.45
2019-03-23T15:57:28.586Z,1.92
2019-03-23T15:59:58.926Z,1.57
2019-03-23T16:02:29.346Z,1.25
2019-03-23T16:04:59.681Z,1.60
2019-03-23T16:07:30.034Z,1.12
2019-03-23T16:10:00.400Z,1.50
2019-03-23T16:12:34.707Z,1.85
2019-03-23T16:15:02.768Z,1.75
2019-03-23T16:17:33.135Z,1.42
2019-03-23T16:20:05.218Z,1.22
2019-03-23T16:22:35.559Z,1.40
2019-03-23T16:25:09.000Z,1.32
2019-03-23T16:27:39.345Z,2.02
2019-03-23T16:30:12.518Z,1.50
2019-03-23T16:32:42.876Z,1.52
2019-03-23T16:35:13.348Z,1.50
2019-03-23T16:37:43.706Z,2.37
2019-03-23T16:40:14.106Z,1.55
2019-03-23T16:42:45.497Z,1.60
2019-03-23T16:45:16.673Z,1.40
2019-03-23T16:47:47.021Z,1.65
2019-03-23T16:50:17.351Z,1.60
2019-03-23T16:52:47.720Z,1.75
2019-03-23T16:55:18.071Z,1.65
2019-03-23T16:57:48.407Z,2.10
2019-03-23T17:00:37.464Z,1.47
2019-03-23T17:03:09.344Z,2.45
2019-03-23T17:05:39.701Z,2.02
2019-03-23T17:08:10.042Z,1.82
2019-03-23T17:10:40.406Z,2.10
2019-03-23T17:13:10.750Z,2.20
2019-03-23T17:15:41.094Z,2.25
2019-03-23T17:18:11.435Z,1.50
2019-03-23T17:20:41.776Z,1.60
2019-03-23T17:23:12.114Z,1.35
2019-03-23T17:25:42.458Z,1.80
2019-03-23T17:28:12.817Z,2.15
2019-03-23T17:30:43.149Z,1.35
2019-03-23T17:33:13.521Z,1.87
2019-03-23T17:35:43.920Z,2.00
2019-03-23T17:38:15.192Z,1.57
2019-03-23T17:40:45.665Z,1.92
2019-03-23T17:43:16.000Z,1.95
2019-03-23T17:45:46.349Z,1.90
2019-03-23T17:48:17.121Z,1.65
2019-03-23T17:50:48.533Z,2.02
2019-03-23T17:53:18.868Z,1.37
2019-03-23T17:55:49.201Z,1.98
2019-03-23T17:58:20.625Z,1.85
2019-03-23T18:00:50.955Z,2.02
2019-03-23T18:03:21.297Z,2.05
2019-03-23T18:05:51.629Z,2.45
2019-03-23T18:08:21.972Z,2.00
2019-03-23T18:10:52.398Z,3.02
2019-03-23T18:13:22.802Z,1.67
2019-03-23T18:15:53.136Z,1.98
2019-03-23T18:18:23.477Z,1.45
2019-03-23T18:20:53.809Z,2.02
2019-03-23T18:23:24.145Z,2.25
2019-03-23T18:25:54.483Z,2.12
2019-03-23T18:28:24.817Z,1.82
2019-03-23T18:30:55.143Z,1.40
2019-03-23T18:33:25.475Z,2.65
2019-03-23T18:35:55.823Z,2.22
2019-03-23T18:38:26.183Z,2.22
2019-03-23T18:40:56.516Z,2.90
2019-03-23T18:43:27.901Z,1.98
2019-03-23T18:45:58.383Z,1.80
2019-03-23T18:48:28.728Z,2.50
2019-03-23T18:50:59.075Z,2.12
2019-03-23T18:53:29.421Z,2.27
2019-03-23T18:55:59.757Z,2.90
2019-03-23T18:58:30.094Z,2.08
2019-03-23T19:01:00.424Z,3.20
2019-03-23T19:03:30.775Z,2.72
2019-03-23T19:06:01.118Z,3.35
2019-03-23T19:08:31.470Z,3.27
2019-03-23T19:11:01.805Z,2.95
2019-03-23T19:13:37.769Z,3.02
2019-03-23T19:16:04.189Z,3.35
2019-03-23T19:18:34.525Z,3.27
2019-03-23T19:21:04.883Z,3.10
2019-03-23T19:23:35.236Z,3.37
2019-03-23T19:26:05.567Z,2.17
2019-03-23T19:28:35.908Z,2.62
2019-03-23T19:31:06.255Z,3.08
2019-03-23T19:33:36.591Z,3.27
2019-03-23T19:36:06.931Z,3.40
2019-03-23T19:38:37.269Z,3.17
2019-03-23T19:41:07.618Z,2.35
2019-03-23T19:43:48.033Z,2.75
2019-03-23T19:46:09.999Z,3.10
2019-03-23T19:48:40.353Z,2.87
2019-03-23T19:51:10.952Z,2.67
2019-03-23T19:53:41.289Z,2.85
2019-03-23T19:56:11.635Z,3.22
2019-03-23T19:58:41.974Z,3.42
2019-03-23T20:01:12.318Z,2.50
2019-03-23T20:03:42.656Z,2.45
2019-03-23T20:06:13.005Z,3.02
2019-03-23T20:08:43.541Z,2.65
2019-03-23T20:11:13.891Z,3.20
2019-03-23T20:13:44.228Z,2.62
2019-03-23T20:16:14.562Z,2.42
2019-03-23T20:18:44.925Z,2.60
2019-03-23T20:21:16.304Z,2.47
2019-03-23T20:23:47.630Z,2.60
2019-03-23T20:26:17.965Z,3.70
2019-03-23T20:28:48.336Z,3.67
2019-03-23T20:31:18.669Z,3.58
2019-03-23T20:33:49.095Z,3.42
2019-03-23T20:36:19.450Z,3.75
2019-03-23T20:38:49.800Z,3.62
2019-03-23T20:41:20.216Z,3.62
2019-03-23T20:43:50.557Z,3.95
2019-03-23T20:46:20.966Z,4.08
2019-03-23T20:48:51.392Z,3.22
2019-03-23T20:51:21.717Z,3.08
2019-03-23T20:53:52.442Z,3.80
2019-03-23T20:56:22.882Z,3.20
2019-03-23T20:58:53.297Z,3.05
2019-03-23T21:01:23.638Z,3.58
2019-03-23T21:03:54.045Z,3.70
2019-03-23T21:06:24.547Z,3.47
2019-03-23T21:09:14.296Z,4.12
2019-03-23T21:11:44.643Z,3.30
2019-03-23T21:14:20.243Z,3.42
2019-03-23T21:16:47.284Z,2.98
2019-03-23T21:19:17.622Z,3.05
2019-03-23T21:21:47.957Z,3.05
2019-03-23T21:24:18.294Z,3.55
2019-03-23T21:26:48.639Z,3.00
2019-03-23T21:29:18.967Z,3.27
2019-03-23T21:31:49.305Z,3.70
2019-03-23T21:34:21.173Z,4.22
2019-03-23T21:36:51.508Z,3.77
2019-03-23T21:39:22.912Z,3.72
2019-03-23T21:41:53.237Z,4.47
2019-03-23T21:44:30.903Z,3.62
2019-03-23T21:46:55.903Z,4.42
2019-03-23T21:49:26.231Z,4.35
2019-03-23T21:51:59.878Z,4.05
2019-03-23T21:54:49.543Z,3.47
2019-03-23T21:57:19.880Z,3.55
2019-03-23T21:59:50.205Z,4.33
2019-03-23T22:02:20.537Z,4.22
2019-03-23T22:04:50.874Z,4.60
2019-03-23T22:07:21.276Z,4.28
2019-03-23T22:09:51.545Z,4.58
2019-03-23T22:12:34.360Z,4.78
2019-03-23T22:15:08.198Z,4.78
2019-03-23T22:17:38.605Z,4.47
2019-03-23T22:20:09.442Z,4.65
2019-03-23T22:22:39.783Z,5.90
2019-03-23T22:25:10.520Z,5.05
2019-03-23T22:27:40.848Z,4.00
2019-03-23T22:30:13.699Z,4.87
2019-03-23T22:32:44.027Z,4.30
2019-03-23T22:35:14.432Z,4.85
2019-03-23T22:37:44.762Z,4.53
2019-03-23T22:40:15.337Z,3.83
2019-03-23T22:42:45.671Z,9.35
2019-03-23T22:45:15.997Z,5.33
2019-03-23T22:47:46.333Z,4.42
2019-03-23T22:50:16.660Z,4.00
2019-03-23T22:52:47.007Z,3.83
2019-03-23T22:55:17.343Z,4.00
2019-03-23T22:57:47.682Z,4.40
2019-03-23T23:00:22.236Z,3.72
2019-03-23T23:02:54.193Z,3.20
2019-03-23T23:05:24.543Z,3.52
2019-03-23T23:07:54.876Z,3.85
2019-03-23T23:10:25.217Z,2.65
2019-03-23T23:12:56.992Z,3.25
2019-03-23T23:15:27.319Z,3.65
2019-03-23T23:17:57.661Z,3.17
2019-03-23T23:20:27.993Z,3.98
2019-03-23T23:22:58.338Z,3.17
2019-03-23T23:25:28.670Z,3.20
2019-03-23T23:27:59.011Z,3.70
2019-03-23T23:30:29.343Z,4.05
2019-03-23T23:32:59.673Z,4.00
2019-03-23T23:35:30.003Z,3.65
2019-03-23T23:38:00.443Z,4.60
2019-03-23T23:40:30.770Z,4.60
2019-03-23T23:43:01.093Z,4.78
2019-03-23T23:45:31.420Z,4.75
2019-03-23T23:48:01.754Z,4.42
2019-03-23T23:50:32.096Z,4.30
2019-03-23T23:53:02.444Z,4.25
2019-03-23T23:55:32.838Z,4.62
2019-03-23T23:58:03.178Z,4.05
